Time;durP1;ratioP1;P1;durP2;ratioP2;P2;SDS_P1;SDS_P2;PMS_P1;PMS_P2;Temp;Humidity;BMP_temperature;BMP_pressure;BME280_temperature;BME280_humidity;BME280_pressure;Samples;Min_cycle;Max_cycle;Signal;HPM_P1;HPM_P2
2023/06/26 00:00:42;;;;;;;5.33;4.47;;;16.80;79.80;;;;;;2025398;29;20468;-66
2023/06/26 00:01:43;;;;;;;6.07;4.57;;;16.80;78.10;;;;;;2024509;29;20316;-66
2023/06/26 00:02:44;;;;;;;5.17;4.50;;;16.80;78.30;;;;;;2024222;29;20999;-66
2023/06/26 00:03:45;;;;;;;5.60;4.30;;;16.80;78.30;;;;;;2026067;29;20714;-66
2023/06/26 00:04:46;;;;;;;5.73;4.37;;;16.80;78.40;;;;;;2026811;29;20472;-67
2023/06/26 00:05:46;;;;;;;5.53;4.23;;;16.80;79.00;;;;;;2027662;29;20237;-66
2023/06/26 00:06:47;;;;;;;5.13;4.43;;;16.80;78.90;;;;;;2026772;29;20704;-66
2023/06/26 00:07:48;;;;;;;5.23;4.33;;;16.70;79.20;;;;;;2023386;29;20249;-65
2023/06/26 00:08:48;;;;;;;6.53;5.03;;;16.70;79.10;;;;;;2027673;29;20329;-66
2023/06/26 00:09:49;;;;;;;6.63;4.43;;;16.70;79.20;;;;;;2027167;29;20328;-66
2023/06/26 00:10:51;;;;;;;5.97;4.83;;;16.80;79.30;;;;;;2035240;29;20231;-65
2023/06/26 00:11:52;;;;;;;6.00;4.50;;;16.70;79.50;;;;;;2031230;29;20236;-65
2023/06/26 00:12:54;;;;;;;5.00;4.20;;;16.60;79.60;;;;;;2034411;29;20243;-65
2023/06/26 00:13:54;;;;;;;6.23;4.90;;;16.50;80.20;;;;;;2030739;29;21104;-66
2023/06/26 00:14:55;;;;;;;5.43;4.70;;;16.60;80.30;;;;;;2030215;29;20498;-66
2023/06/26 00:15:56;;;;;;;4.90;4.30;;;16.60;80.20;;;;;;2027343;29;20615;-66
2023/06/26 00:16:56;;;;;;;5.53;4.63;;;16.60;80.00;;;;;;2026211;29;20237;-66
2023/06/26 00:17:58;;;;;;;5.57;4.60;;;16.50;80.50;;;;;;2018594;29;20709;-66
2023/06/26 00:19:00;;;;;;;6.05;4.72;;;16.50;81.10;;;;;;2030512;29;20709;-66
2023/06/26 00:20:05;;;;;;;6.75;4.90;;;16.40;81.10;;;;;;2033748;29;20305;-65
2023/06/26 00:21:05;;;;;;;5.63;4.43;;;16.40;81.20;;;;;;2036831;29;20218;-66
2023/06/26 00:22:06;;;;;;;7.13;4.63;;;16.40;81.30;;;;;;2026755;29;20457;-66
2023/06/26 00:23:07;;;;;;;5.57;4.47;;;16.40;81.10;;;;;;2026547;29;20200;-66
2023/06/26 00:24:08;;;;;;;6.13;4.77;;;16.40;81.70;;;;;;2031029;29;20233;-66
2023/06/26 00:25:08;;;;;;;5.50;4.70;;;16.40;81.80;;;;;;2031162;29;20193;-66
2023/06/26 00:26:10;;;;;;;6.77;5.10;;;16.40;81.80;;;;;;2031215;29;20193;-66
2023/06/26 00:27:10;;;;;;;5.68;4.85;;;16.30;81.70;;;;;;2030430;29;20588;-66
2023/06/26 00:28:11;;;;;;;6.67;5.07;;;16.40;82.20;;;;;;2029398;29;20228;-66
2023/06/26 00:29:12;;;;;;;5.37;4.30;;;16.30;82.60;;;;;;2030627;29;20907;-66
2023/06/26 00:30:12;;;;;;;6.07;4.63;;;16.20;82.80;;;;;;2025561;29;20203;-66
2023/06/26 00:31:13;;;;;;;6.47;4.43;;;16.30;83.00;;;;;;2030729;29;20244;-66
2023/06/26 00:32:14;;;;;;;4.77;4.07;;;16.20;82.80;;;;;;2025241;29;20204;-66
2023/06/26 00:33:15;;;;;;;7.83;4.83;;;16.10;83.00;;;;;;2022372;29;20296;-66
2023/06/26 00:34:16;;;;;;;5.63;4.43;;;16.20;83.20;;;;;;2019050;29;20197;-66
2023/06/26 00:35:17;;;;;;;5.40;4.60;;;16.20;83.00;;;;;;2029350;29;20474;-66
2023/06/26 00:36:17;;;;;;;6.17;4.80;;;16.20;82.80;;;;;;2030083;29;20742;-66
2023/06/26 00:37:18;;;;;;;7.17;4.90;;;16.10;83.60;;;;;;2027544;29;20279;-66
2023/06/26 00:38:19;;;;;;;6.13;4.43;;;16.10;83.50;;;;;;2025257;29;20221;-66
2023/06/26 00:39:19;;;;;;;6.73;4.27;;;16.20;83.40;;;;;;2027604;29;20219;-66
2023/06/26 00:40:20;;;;;;;5.27;4.63;;;16.10;83.40;;;;;;2026554;29;20228;-65
2023/06/26 00:41:21;;;;;;;5.37;4.50;;;16.10;83.70;;;;;;2018893;29;20233;-66
2023/06/26 00:42:21;;;;;;;5.07;4.40;;;16.10;83.80;;;;;;2028128;29;20240;-66
2023/06/26 00:43:22;;;;;;;6.13;4.60;;;16.10;83.80;;;;;;2028365;29;20739;-66
2023/06/26 00:44:23;;;;;;;5.40;4.60;;;16.10;83.90;;;;;;2028137;29;20319;-66
2023/06/26 00:45:23;;;;;;;5.57;4.80;;;16.20;84.20;;;;;;2036121;29;20232;-66
2023/06/26 00:46:24;;;;;;;5.90;4.77;;;16.20;84.30;;;;;;2036764;29;20228;-66
2023/06/26 00:47:25;;;;;;;5.23;4.33;;;16.10;84.40;;;;;;2035663;29;20274;-66
2023/06/26 00:48:27;;;;;;;5.63;4.77;;;16.10;84.50;;;;;;2034348;29;20240;-66
2023/06/26 00:49:28;;;;;;;7.93;4.65;;;16.10;84.70;;;;;;2038238;29;20496;-66
2023/06/26 00:50:29;;;;;;;6.10;4.97;;;16.00;85.30;;;;;;2038219;29;20636;-66
2023/06/26 00:51:30;;;;;;;6.43;5.00;;;16.00;85.10;;;;;;2032339;29;20340;-66
2023/06/26 00:52:32;;;;;;;5.38;4.55;;;15.90;85.80;;;;;;2034652;29;20235;-66
2023/06/26 00:53:34;;;;;;;7.28;5.53;;;15.90;85.90;;;;;;2038157;29;20228;-66
2023/06/26 00:54:34;;;;;;;6.28;5.00;;;15.90;86.00;;;;;;2038010;29;20685;-66
2023/06/26 00:55:35;;;;;;;5.23;4.30;;;15.90;85.80;;;;;;2029810;29;20240;-66
2023/06/26 00:56:37;;;;;;;5.22;4.35;;;15.90;86.00;;;;;;2019872;29;20236;-66
2023/06/26 00:57:38;;;;;;;6.35;4.45;;;16.00;85.80;;;;;;2024866;29;20233;-66
2023/06/26 00:58:38;;;;;;;5.63;4.40;;;16.00;85.50;;;;;;2038136;29;20330;-66
2023/06/26 00:59:40;;;;;;;6.07;4.83;;;15.90;85.80;;;;;;2038396;29;21063;-66
2023/06/26 01:00:41;;;;;;;5.00;4.40;;;15.80;86.20;;;;;;2034650;29;20347;-66
2023/06/26 01:01:42;;;;;;;6.90;4.82;;;15.90;86.00;;;;;;2038376;29;20287;-66
2023/06/26 01:02:42;;;;;;;6.73;5.00;;;15.90;85.50;;;;;;2038021;29;20228;-66
2023/06/26 01:03:52;;;;;;;6.40;5.03;;;15.90;85.30;;;;;;2030632;29;20241;-65
2023/06/26 01:04:53;;;;;;;5.95;4.53;;;15.90;85.70;;;;;;2030546;29;20229;-66
2023/06/26 01:05:58;;;;;;;5.87;5.00;;;15.90;85.50;;;;;;2030887;29;20315;-65
2023/06/26 01:07:01;;;;;;;5.47;4.47;;;15.90;85.90;;;;;;2034516;29;20236;-66
2023/06/26 01:08:03;;;;;;;6.88;4.90;;;15.90;85.60;;;;;;2026147;29;20252;-66
2023/06/26 01:09:04;;;;;;;5.72;4.53;;;15.90;85.80;;;;;;2033194;29;20288;-66
2023/06/26 01:10:06;;;;;;;5.83;4.97;;;15.90;86.40;;;;;;2027982;29;20686;-66
2023/06/26 01:11:07;;;;;;;7.45;4.45;;;15.90;86.60;;;;;;2028657;29;20208;-66
2023/06/26 01:12:08;;;;;;;5.28;4.47;;;15.80;86.50;;;;;;2036167;29;20192;-66
2023/06/26 01:13:09;;;;;;;6.87;5.00;;;15.80;86.80;;;;;;2034227;29;20205;-66
2023/06/26 01:14:10;;;;;;;5.97;4.67;;;15.80;88.30;;;;;;2030543;29;20200;-66
2023/06/26 01:15:11;;;;;;;6.13;4.80;;;15.80;87.20;;;;;;2030295;29;20699;-66
2023/06/26 01:16:12;;;;;;;5.60;4.27;;;15.80;87.10;;;;;;2030392;29;20185;-66
2023/06/26 01:17:14;;;;;;;5.93;4.30;;;15.80;87.60;;;;;;2030317;29;20185;-66
2023/06/26 01:18:16;;;;;;;5.50;4.03;;;15.70;87.50;;;;;;2030292;29;20216;-66
2023/06/26 01:19:28;;;;;;;5.82;4.18;;;15.70;87.80;;;;;;2030437;29;20188;-66
2023/06/26 01:20:39;;;;;;;7.03;4.97;;;15.60;88.00;;;;;;2037087;29;20271;-65
2023/06/26 01:21:44;;;;;;;5.68;4.55;;;15.60;88.20;;;;;;2031367;29;20588;-65
2023/06/26 01:23:09;;;;;;;6.57;4.80;;;15.60;87.80;;;;;;2032892;29;20234;-66
2023/06/26 01:24:20;;;;;;;5.32;4.15;;;15.60;87.60;;;;;;2031187;29;20626;-66
2023/06/26 01:25:32;;;;;;;7.32;5.15;;;15.70;87.60;;;;;;2021160;29;20226;-66
2023/06/26 01:26:36;;;;;;;5.40;4.53;;;15.70;87.20;;;;;;2026088;29;20327;-66
2023/06/26 01:27:38;;;;;;;6.22;4.78;;;15.70;86.80;;;;;;2028856;29;20224;-66
2023/06/26 01:28:43;;;;;;;5.88;4.43;;;15.70;86.60;;;;;;2035770;29;20622;-66
2023/06/26 01:29:45;;;;;;;6.63;4.82;;;15.70;86.50;;;;;;2027151;29;20699;-66
2023/06/26 01:30:47;;;;;;;5.90;4.80;;;15.60;86.90;;;;;;2024203;29;20316;-66
2023/06/26 01:31:49;;;;;;;7.20;4.75;;;15.70;87.00;;;;;;2030759;29;20231;-65
2023/06/26 01:32:50;;;;;;;5.45;4.15;;;15.60;86.90;;;;;;2027972;29;20240;-65
2023/06/26 01:33:52;;;;;;;5.75;4.45;;;15.60;87.00;;;;;;2028105;29;20238;-65
2023/06/26 01:34:53;;;;;;;6.78;4.40;;;15.60;87.10;;;;;;2033453;29;20251;-66
2023/06/26 01:35:54;;;;;;;7.23;4.60;;;15.60;87.10;;;;;;2035833;29;20239;-65
2023/06/26 01:36:55;;;;;;;5.80;4.18;;;15.60;86.70;;;;;;2029863;29;20577;-66
2023/06/26 01:38:17;;;;;;;5.83;4.37;;;15.60;86.50;;;;;;2031658;29;20264;-65
2023/06/26 01:39:19;;;;;;;6.40;4.45;;;15.50;86.30;;;;;;2028138;29;20746;-66
2023/06/26 01:40:20;;;;;;;7.68;4.63;;;15.50;86.20;;;;;;2031790;29;20237;-66
2023/06/26 01:41:20;;;;;;;6.13;4.40;;;15.50;86.80;;;;;;2032289;29;20242;-66
2023/06/26 01:42:21;;;;;;;5.20;4.53;;;15.50;87.10;;;;;;2028401;29;20608;-66
2023/06/26 01:43:36;;;;;;;5.73;4.23;;;15.50;87.10;;;;;;2035884;29;20322;-66
2023/06/26 01:44:45;;;;;;;5.57;4.20;;;15.50;87.00;;;;;;2035988;29;20311;-65
2023/06/26 01:45:51;;;;;;;5.70;4.32;;;15.50;87.40;;;;;;2030712;29;20233;-66
2023/06/26 01:47:04;;;;;;;5.07;4.47;;;15.50;87.40;;;;;;2031171;29;20229;-66
2023/06/26 01:48:07;;;;;;;5.90;4.50;;;15.50;87.10;;;;;;2027849;29;20341;-66
2023/06/26 01:49:29;;;;;;;6.25;4.20;;;15.50;87.00;;;;;;2023839;29;20801;-66
2023/06/26 01:50:34;;;;;;;6.65;5.15;;;15.50;87.00;;;;;;2020337;29;20233;-66
2023/06/26 01:51:43;;;;;;;6.10;4.85;;;15.50;87.00;;;;;;2022053;29;20233;-66
2023/06/26 01:53:07;;;;;;;5.90;4.63;;;15.50;86.80;;;;;;2024537;29;20324;-66
2023/06/26 01:54:19;;;;;;;5.07;4.15;;;15.50;86.60;;;;;;2023018;29;20221;-66
2023/06/26 01:55:41;;;;;;;6.43;4.40;;;15.40;86.90;;;;;;2023057;29;20233;-66
2023/06/26 01:56:45;;;;;;;5.45;4.63;;;15.30;87.30;;;;;;2028871;29;20268;-65
2023/06/26 01:57:52;;;;;;;5.90;4.53;;;15.30;87.20;;;;;;2033480;29;20392;-65
2023/06/26 01:58:55;;;;;;;5.57;4.22;;;15.30;87.50;;;;;;2031624;29;20656;-65
2023/06/26 01:59:56;;;;;;;4.95;3.90;;;15.20;87.20;;;;;;2023646;29;20288;-65
2023/06/26 02:00:57;;;;;;;5.13;4.00;;;15.20;87.30;;;;;;2023317;29;20277;-65
2023/06/26 02:02:01;;;;;;;5.50;4.00;;;15.30;87.00;;;;;;2035848;29;20287;-65
2023/06/26 02:03:01;;;;;;;5.55;4.38;;;15.20;86.80;;;;;;2030122;29;20704;-66
2023/06/26 02:04:02;;;;;;;6.00;4.10;;;15.20;86.90;;;;;;2031764;29;20214;-66
2023/06/26 02:05:03;;;;;;;5.80;4.53;;;15.30;86.60;;;;;;2035280;29;20636;-66
2023/06/26 02:06:04;;;;;;;5.27;3.90;;;15.30;86.60;;;;;;2023433;29;20194;-66
2023/06/26 02:07:05;;;;;;;5.17;4.60;;;15.20;86.70;;;;;;2023536;29;20395;-66
2023/06/26 02:08:08;;;;;;;4.97;4.07;;;15.30;86.40;;;;;;2036569;29;20238;-66
2023/06/26 02:09:09;;;;;;;4.40;3.60;;;15.30;86.10;;;;;;2037454;29;20188;-66
2023/06/26 02:10:10;;;;;;;5.60;4.13;;;15.30;85.70;;;;;;2023573;29;20194;-66
2023/06/26 02:11:11;;;;;;;5.65;4.22;;;15.30;85.60;;;;;;2031443;29;20263;-66
2023/06/26 02:12:12;;;;;;;5.43;4.40;;;15.30;85.50;;;;;;2027145;29;20862;-66
2023/06/26 02:13:12;;;;;;;4.70;4.03;;;15.30;85.00;;;;;;2019386;29;20285;-66
2023/06/26 02:14:13;;;;;;;5.00;4.23;;;15.30;85.20;;;;;;2027295;29;20622;-66
2023/06/26 02:15:14;;;;;;;5.60;3.93;;;15.30;85.00;;;;;;2028117;29;20223;-66
2023/06/26 02:16:14;;;;;;;5.27;4.07;;;15.20;85.30;;;;;;2027169;29;20189;-66
2023/06/26 02:17:15;;;;;;;6.03;4.30;;;15.30;84.90;;;;;;2034872;29;20180;-66
2023/06/26 02:18:16;;;;;;;4.80;4.23;;;15.30;84.70;;;;;;2034098;29;20204;-66
2023/06/26 02:19:21;;;;;;;8.30;4.67;;;15.20;84.60;;;;;;2034402;29;20187;-66
2023/06/26 02:20:21;;;;;;;5.13;3.90;;;15.20;84.50;;;;;;2034768;29;21025;-66
2023/06/26 02:21:22;;;;;;;5.43;4.20;;;15.20;84.60;;;;;;2027603;29;20323;-66
2023/06/26 02:22:23;;;;;;;6.43;4.27;;;15.10;85.10;;;;;;2028021;29;20240;-66
2023/06/26 02:23:24;;;;;;;4.97;4.30;;;15.20;84.30;;;;;;2039329;29;21112;-67
2023/06/26 02:24:24;;;;;;;5.80;4.23;;;15.20;84.20;;;;;;2034985;29;20319;-66
2023/06/26 02:25:25;;;;;;;4.53;3.97;;;15.20;83.80;;;;;;2031593;29;20233;-66
2023/06/26 02:26:26;;;;;;;5.13;3.97;;;15.30;83.50;;;;;;2031380;29;20732;-65
2023/06/26 02:27:27;;;;;;;5.90;4.57;;;15.30;83.60;;;;;;2031483;29;20268;-66
2023/06/26 02:28:28;;;;;;;5.93;4.80;;;15.30;83.60;;;;;;2037185;29;20303;-66
2023/06/26 02:29:28;;;;;;;5.83;3.97;;;15.30;84.20;;;;;;2028130;29;20361;-66
2023/06/26 02:30:29;;;;;;;7.70;4.47;;;15.20;84.30;;;;;;2029003;29;20260;-66
2023/06/26 02:31:30;;;;;;;6.13;4.40;;;15.10;85.40;;;;;;2039139;29;20707;-65
2023/06/26 02:32:30;;;;;;;5.73;3.97;;;15.10;86.30;;;;;;2028356;29;20225;-66
2023/06/26 02:33:32;;;;;;;4.93;4.40;;;15.10;86.40;;;;;;2018429;29;20244;-66
2023/06/26 02:34:33;;;;;;;5.70;4.15;;;15.20;86.60;;;;;;2030130;29;20695;-66
2023/06/26 02:35:34;;;;;;;5.63;4.50;;;15.10;86.30;;;;;;2029301;29;20248;-65
2023/06/26 02:36:34;;;;;;;5.13;4.13;;;15.10;86.30;;;;;;2030610;29;20228;-66
2023/06/26 02:37:35;;;;;;;5.20;4.30;;;15.20;86.10;;;;;;2029840;29;20229;-65
2023/06/26 02:38:36;;;;;;;6.40;4.80;;;15.20;85.60;;;;;;2027969;29;20687;-65
2023/06/26 02:39:36;;;;;;;5.70;3.83;;;15.20;85.40;;;;;;2032093;29;20228;-66
2023/06/26 02:40:37;;;;;;;5.10;4.50;;;15.20;85.60;;;;;;2029861;29;20231;-66
2023/06/26 02:41:38;;;;;;;5.03;3.90;;;15.20;85.50;;;;;;2031241;29;20719;-66
2023/06/26 02:42:39;;;;;;;5.97;4.30;;;15.20;85.70;;;;;;2021480;29;20268;-66
2023/06/26 02:43:39;;;;;;;6.57;4.40;;;15.20;85.70;;;;;;2021932;29;20229;-66
2023/06/26 02:44:40;;;;;;;5.57;4.13;;;15.10;85.40;;;;;;2031095;29;20315;-66
2023/06/26 02:45:41;;;;;;;5.88;4.10;;;15.10;85.20;;;;;;2035542;29;20232;-66
2023/06/26 02:46:42;;;;;;;5.53;4.50;;;15.10;85.10;;;;;;2034330;29;20232;-66
2023/06/26 02:47:42;;;;;;;6.00;3.90;;;15.10;84.80;;;;;;2025262;29;20259;-66
2023/06/26 02:48:43;;;;;;;6.87;3.87;;;15.10;84.70;;;;;;2025202;29;20232;-66
2023/06/26 02:49:44;;;;;;;5.57;4.00;;;15.10;84.50;;;;;;2030236;29;20303;-65
2023/06/26 02:50:46;;;;;;;5.50;4.10;;;15.10;84.30;;;;;;2037126;29;20232;-65
2023/06/26 02:51:47;;;;;;;4.45;4.00;;;15.10;84.30;;;;;;2035987;29;20230;-66
2023/06/26 02:52:52;;;;;;;5.37;4.17;;;15.10;84.10;;;;;;2030250;29;20224;-65
2023/06/26 02:53:52;;;;;;;6.22;4.47;;;15.10;84.10;;;;;;2031767;29;20508;-66
2023/06/26 02:54:53;;;;;;;5.00;3.77;;;15.00;84.30;;;;;;2038345;29;20391;-65
2023/06/26 02:55:55;;;;;;;5.43;4.23;;;15.00;84.00;;;;;;2039086;29;20263;-66
2023/06/26 02:56:56;;;;;;;4.78;3.97;;;15.00;83.80;;;;;;2034822;29;20221;-65
2023/06/26 02:57:57;;;;;;;7.03;4.07;;;15.00;83.60;;;;;;2034948;29;20695;-65
2023/06/26 02:58:58;;;;;;;5.37;4.00;;;14.90;84.50;;;;;;2035281;29;20232;-65
2023/06/26 02:59:58;;;;;;;6.90;4.10;;;14.90;84.50;;;;;;2027792;29;20280;-65
2023/06/26 03:00:59;;;;;;;6.00;4.07;;;14.90;84.60;;;;;;2031852;29;20951;-66
2023/06/26 03:02:00;;;;;;;6.30;4.30;;;15.00;84.50;;;;;;2035103;29;20229;-65
2023/06/26 03:03:00;;;;;;;6.70;4.60;;;15.00;84.20;;;;;;2035445;29;20228;-66
2023/06/26 03:04:02;;;;;;;5.17;4.17;;;15.00;83.70;;;;;;2026560;29;20224;-66
2023/06/26 03:05:04;;;;;;;5.10;4.13;;;15.00;83.40;;;;;;2028859;29;20209;-66
2023/06/26 03:06:04;;;;;;;5.25;4.00;;;15.00;83.10;;;;;;2018464;29;20201;-66
2023/06/26 03:07:05;;;;;;;5.73;4.07;;;15.00;83.10;;;;;;2029932;29;20200;-66
2023/06/26 03:08:06;;;;;;;5.37;4.10;;;15.00;83.10;;;;;;2038560;29;20232;-66
2023/06/26 03:09:07;;;;;;;6.93;3.97;;;15.00;83.40;;;;;;2031025;29;20326;-66
2023/06/26 03:10:08;;;;;;;5.10;4.27;;;15.00;83.50;;;;;;2031478;29;20188;-67
2023/06/26 03:11:09;;;;;;;5.18;3.88;;;15.00;83.80;;;;;;2027926;29;20596;-66
2023/06/26 03:12:10;;;;;;;5.65;4.30;;;15.00;84.10;;;;;;2027024;29;20202;-66
2023/06/26 03:13:11;;;;;;;5.67;4.27;;;15.00;84.10;;;;;;2027045;29;20193;-66
2023/06/26 03:14:12;;;;;;;5.50;4.10;;;14.90;84.90;;;;;;2028140;29;20280;-68
2023/06/26 03:15:12;;;;;;;5.07;3.97;;;14.90;85.00;;;;;;2027765;29;20213;-65
2023/06/26 03:16:13;;;;;;;5.33;4.03;;;14.90;85.10;;;;;;2028208;29;20187;-65
2023/06/26 03:17:14;;;;;;;5.73;4.47;;;14.90;85.10;;;;;;2034979;29;20184;-65
2023/06/26 03:18:14;;;;;;;6.37;4.00;;;14.90;85.00;;;;;;2038652;29;20220;-65
2023/06/26 03:19:15;;;;;;;5.47;4.27;;;14.90;84.80;;;;;;2031451;29;20735;-65
2023/06/26 03:20:16;;;;;;;6.23;4.60;;;14.90;84.50;;;;;;2039010;29;20179;-65
2023/06/26 03:21:17;;;;;;;6.17;4.47;;;14.90;84.20;;;;;;2039448;29;20652;-65
2023/06/26 03:22:18;;;;;;;5.60;3.83;;;14.90;84.30;;;;;;2027288;29;20181;-65
2023/06/26 03:23:19;;;;;;;5.17;4.20;;;14.80;84.50;;;;;;2038053;29;20193;-65
2023/06/26 03:24:19;;;;;;;5.23;3.80;;;14.90;84.50;;;;;;2038813;29;20188;-65
2023/06/26 03:25:20;;;;;;;4.93;3.73;;;14.90;84.30;;;;;;2028606;29;20645;-65
2023/06/26 03:26:28;;;;;;;5.17;4.00;;;14.90;84.60;;;;;;2038924;29;20616;-65
2023/06/26 03:27:29;;;;;;;5.30;4.05;;;14.90;84.90;;;;;;2037965;29;20240;-65
2023/06/26 03:28:31;;;;;;;4.68;3.88;;;14.90;83.60;;;;;;2029251;29;20307;-65
2023/06/26 03:29:31;;;;;;;6.05;3.92;;;14.80;82.60;;;;;;2031477;29;20229;-65
2023/06/26 03:30:32;;;;;;;5.70;4.33;;;14.90;82.90;;;;;;2034628;29;20270;-65
2023/06/26 03:31:33;;;;;;;5.53;3.90;;;14.90;82.60;;;;;;2032009;29;20228;-65
2023/06/26 03:32:34;;;;;;;5.87;4.10;;;14.90;82.30;;;;;;2029066;29;20269;-65
2023/06/26 03:33:35;;;;;;;6.40;4.40;;;14.90;82.10;;;;;;2029789;29;20233;-65
2023/06/26 03:34:35;;;;;;;6.10;4.32;;;14.90;82.30;;;;;;2030703;29;20638;-65
2023/06/26 03:35:36;;;;;;;5.20;4.03;;;15.00;82.30;;;;;;2030042;29;20279;-65
2023/06/26 03:36:37;;;;;;;5.43;3.93;;;15.00;82.50;;;;;;2029097;29;20240;-65
2023/06/26 03:37:38;;;;;;;6.10;4.40;;;15.00;82.30;;;;;;2030315;29;20229;-65
2023/06/26 03:38:38;;;;;;;5.40;4.20;;;15.00;82.60;;;;;;2029845;29;20323;-65
2023/06/26 03:39:39;;;;;;;4.97;4.30;;;15.00;82.00;;;;;;2026950;29;20233;-65
2023/06/26 03:40:40;;;;;;;4.57;3.80;;;15.00;82.00;;;;;;2026692;29;20281;-65
2023/06/26 03:41:40;;;;;;;5.33;4.07;;;15.00;82.20;;;;;;2031145;29;20241;-65
2023/06/26 03:42:42;;;;;;;4.87;3.80;;;15.00;82.40;;;;;;2028855;29;20268;-65
2023/06/26 03:43:43;;;;;;;6.03;4.03;;;15.00;83.30;;;;;;2027644;29;20233;-65
2023/06/26 03:44:43;;;;;;;5.67;4.70;;;14.90;83.30;;;;;;2025238;29;20224;-65
2023/06/26 03:45:44;;;;;;;6.87;4.57;;;14.90;83.30;;;;;;2038683;29;20236;-65
2023/06/26 03:46:45;;;;;;;5.20;4.17;;;15.00;83.10;;;;;;2035967;29;20939;-65
2023/06/26 03:47:49;;;;;;;5.67;4.30;;;15.00;83.20;;;;;;2032972;29;20240;-65
2023/06/26 03:48:49;;;;;;;6.60;4.28;;;15.00;82.70;;;;;;2028238;29;20264;-65
2023/06/26 03:49:51;;;;;;;6.07;4.00;;;15.00;82.70;;;;;;2030994;29;20239;-66
2023/06/26 03:50:52;;;;;;;5.68;3.67;;;15.00;83.00;;;;;;2037735;29;20224;-65
2023/06/26 03:51:53;;;;;;;6.00;4.23;;;15.00;84.20;;;;;;2029640;29;20228;-66
2023/06/26 03:52:54;;;;;;;5.47;4.23;;;15.00;83.10;;;;;;2029643;29;20372;-66
2023/06/26 03:53:55;;;;;;;5.15;4.30;;;15.10;83.10;;;;;;2027885;29;20296;-65
2023/06/26 03:54:55;;;;;;;5.87;4.13;;;15.10;82.40;;;;;;2029792;29;20805;-65
2023/06/26 03:55:56;;;;;;;5.57;4.17;;;15.10;82.60;;;;;;2026383;29;20229;-65
2023/06/26 03:56:57;;;;;;;5.27;4.13;;;15.00;83.80;;;;;;2036066;29;20221;-66
2023/06/26 03:57:58;;;;;;;6.63;4.50;;;15.00;84.30;;;;;;2035502;29;20231;-65
2023/06/26 03:58:59;;;;;;;4.83;3.90;;;14.90;84.60;;;;;;2028473;29;20972;-66
2023/06/26 03:59:59;;;;;;;7.40;4.23;;;14.80;84.30;;;;;;2035012;29;20270;-66
2023/06/26 04:01:00;;;;;;;5.33;4.37;;;14.90;84.00;;;;;;2035568;29;20287;-65
2023/06/26 04:02:01;;;;;;;5.20;3.83;;;14.90;83.80;;;;;;2042495;29;20219;-66
2023/06/26 04:03:02;;;;;;;5.20;3.87;;;15.00;83.50;;;;;;2030817;29;20185;-66
2023/06/26 04:04:03;;;;;;;5.07;4.03;;;15.10;82.60;;;;;;2038107;29;20180;-66
2023/06/26 04:05:04;;;;;;;4.78;3.55;;;15.10;82.10;;;;;;2038107;29;20188;-66
2023/06/26 04:06:05;;;;;;;5.60;3.75;;;15.20;82.00;;;;;;2037637;29;20241;-66
2023/06/26 04:07:06;;;;;;;4.75;3.60;;;15.20;81.70;;;;;;2037593;29;20252;-66
2023/06/26 04:08:07;;;;;;;5.20;3.70;;;15.20;81.60;;;;;;2034482;29;20208;-66
2023/06/26 04:09:08;;;;;;;5.72;3.92;;;15.30;81.80;;;;;;2028716;29;20185;-65
2023/06/26 04:10:09;;;;;;;6.23;4.10;;;15.40;81.70;;;;;;2027971;29;20220;-65
2023/06/26 04:11:10;;;;;;;6.28;4.10;;;15.40;81.30;;;;;;2032812;29;20191;-66
2023/06/26 04:12:11;;;;;;;6.53;4.60;;;15.40;81.20;;;;;;2025421;29;20201;-66
2023/06/26 04:13:12;;;;;;;5.70;4.03;;;15.50;80.50;;;;;;2027524;29;20196;-66
2023/06/26 04:14:12;;;;;;;6.33;4.30;;;15.40;80.60;;;;;;2030580;29;20193;-65
2023/06/26 04:15:15;;;;;;;5.93;4.57;;;15.40;81.20;;;;;;2027930;29;20587;-66
2023/06/26 04:16:15;;;;;;;6.22;4.00;;;15.40;81.20;;;;;;2029284;29;20184;-66
2023/06/26 04:17:16;;;;;;;6.43;4.20;;;15.40;81.10;;;;;;2023203;29;20213;-66
2023/06/26 04:18:19;;;;;;;5.37;4.20;;;15.40;81.00;;;;;;2022112;29;20198;-65
2023/06/26 04:19:20;;;;;;;5.47;4.20;;;15.50;81.60;;;;;;2025397;29;20245;-66
2023/06/26 04:20:20;;;;;;;7.50;4.37;;;15.50;81.50;;;;;;2025015;29;20985;-66
2023/06/26 04:21:24;;;;;;;5.43;4.13;;;15.60;82.20;;;;;;2035658;29;20236;-66
2023/06/26 04:22:25;;;;;;;4.78;3.83;;;15.60;82.60;;;;;;2027999;29;20239;-66
2023/06/26 04:23:26;;;;;;;5.50;4.10;;;15.50;82.50;;;;;;2023956;29;20233;-66
2023/06/26 04:24:27;;;;;;;5.63;4.30;;;15.50;82.30;;;;;;2030027;29;20295;-66
2023/06/26 04:25:29;;;;;;;7.07;4.00;;;15.50;82.30;;;;;;2033998;29;20225;-66
2023/06/26 04:26:29;;;;;;;4.65;3.90;;;15.60;82.00;;;;;;2033726;29;20605;-65
2023/06/26 04:27:31;;;;;;;5.80;3.93;;;15.70;81.70;;;;;;2026624;29;20225;-66
2023/06/26 04:28:34;;;;;;;6.78;4.40;;;15.60;81.80;;;;;;2026787;29;20300;-66
2023/06/26 04:29:34;;;;;;;5.75;4.07;;;15.60;81.80;;;;;;2035879;29;20228;-66
2023/06/26 04:30:35;;;;;;;5.17;3.93;;;15.60;82.00;;;;;;2035456;29;20315;-66
2023/06/26 04:31:36;;;;;;;4.93;3.73;;;15.70;82.50;;;;;;2025916;29;20274;-66
2023/06/26 04:32:36;;;;;;;4.93;4.10;;;15.70;82.70;;;;;;2028914;29;20959;-66
2023/06/26 04:33:37;;;;;;;5.00;4.13;;;15.70;82.70;;;;;;2038540;29;20239;-66
2023/06/26 04:34:41;;;;;;;4.85;4.05;;;15.70;82.80;;;;;;2036000;29;20232;-66
2023/06/26 04:35:44;;;;;;;5.97;4.60;;;15.70;82.70;;;;;;2031351;29;20229;-66
2023/06/26 04:36:47;;;;;;;4.90;3.95;;;15.70;83.00;;;;;;2031784;29;20225;-66
2023/06/26 04:37:48;;;;;;;4.63;4.03;;;15.80;83.10;;;;;;2029038;29;20229;-66
2023/06/26 04:38:49;;;;;;;4.60;3.87;;;15.80;83.30;;;;;;2023269;29;20237;-66
2023/06/26 04:39:50;;;;;;;5.47;4.20;;;15.80;83.50;;;;;;2023056;29;20240;-66
2023/06/26 04:40:51;;;;;;;5.53;4.37;;;15.80;84.00;;;;;;2026592;29;20251;-66
2023/06/26 04:41:52;;;;;;;5.43;4.43;;;15.80;84.30;;;;;;2031040;29;20471;-66
2023/06/26 04:42:53;;;;;;;5.85;4.15;;;15.80;83.80;;;;;;2026041;29;21011;-66
2023/06/26 04:43:54;;;;;;;5.40;4.30;;;15.80;83.50;;;;;;2026566;29;20226;-66
2023/06/26 04:44:54;;;;;;;5.33;3.93;;;15.90;82.80;;;;;;2033332;29;20799;-66
2023/06/26 04:45:56;;;;;;;4.30;3.67;;;15.90;81.90;;;;;;2032989;29;20327;-66
2023/06/26 04:46:56;;;;;;;7.77;4.20;;;15.90;82.90;;;;;;2022600;29;20234;-66
2023/06/26 04:47:57;;;;;;;6.00;4.53;;;15.90;81.60;;;;;;2026283;29;20484;-66
2023/06/26 04:48:58;;;;;;;5.87;4.03;;;15.90;81.90;;;;;;2025405;29;20274;-66
2023/06/26 04:49:59;;;;;;;6.50;4.33;;;16.00;80.70;;;;;;2027290;29;20308;-65
2023/06/26 04:50:59;;;;;;;5.60;4.10;;;16.00;81.50;;;;;;2026354;29;20740;-65
2023/06/26 04:52:00;;;;;;;5.40;4.23;;;16.00;80.40;;;;;;2023581;29;20370;-65
2023/06/26 04:53:02;;;;;;;5.70;4.17;;;16.10;80.00;;;;;;2021534;29;20210;-66
2023/06/26 04:54:03;;;;;;;5.70;4.30;;;16.10;80.10;;;;;;2031004;29;20226;-65
2023/06/26 04:55:04;;;;;;;5.67;4.40;;;16.10;79.90;;;;;;2037882;29;20212;-65
2023/06/26 04:56:04;;;;;;;5.63;4.35;;;16.10;79.40;;;;;;2031130;29;20284;-65
2023/06/26 04:57:05;;;;;;;5.13;3.87;;;16.20;78.90;;;;;;2026340;29;20189;-65
2023/06/26 04:58:06;;;;;;;5.23;4.40;;;16.20;79.30;;;;;;2029814;29;20208;-66
2023/06/26 04:59:07;;;;;;;4.53;3.70;;;16.10;79.90;;;;;;2026801;29;20232;-66
2023/06/26 05:00:10;;;;;;;4.83;4.03;;;16.10;80.70;;;;;;2030292;29;20208;-65
2023/06/26 05:01:13;;;;;;;6.40;4.15;;;16.10;80.10;;;;;;2030310;29;20204;-66
2023/06/26 05:02:14;;;;;;;5.37;4.40;;;16.10;79.00;;;;;;2030333;29;20189;-66
2023/06/26 05:03:17;;;;;;;6.10;4.33;;;16.20;78.90;;;;;;2034166;29;20423;-66
2023/06/26 05:04:18;;;;;;;5.70;4.33;;;16.20;79.70;;;;;;2023757;29;20479;-66
2023/06/26 05:05:19;;;;;;;6.37;4.50;;;16.30;79.80;;;;;;2029249;29;20431;-66
2023/06/26 05:06:20;;;;;;;5.47;4.10;;;16.40;79.60;;;;;;2027031;29;20197;-67
2023/06/26 05:07:20;;;;;;;4.40;3.60;;;16.40;78.90;;;;;;2026578;29;20238;-66
2023/06/26 05:08:23;;;;;;;7.53;4.57;;;16.50;78.90;;;;;;2029796;29;20245;-66
2023/06/26 05:09:24;;;;;;;5.33;4.13;;;16.50;79.00;;;;;;2037949;29;20970;-66
2023/06/26 05:10:25;;;;;;;4.80;4.07;;;16.60;79.20;;;;;;2030404;29;20482;-66
2023/06/26 05:11:26;;;;;;;5.93;3.87;;;16.60;79.10;;;;;;2028791;29;20293;-66
2023/06/26 05:12:26;;;;;;;6.37;4.67;;;16.60;79.20;;;;;;2025127;29;20285;-66
2023/06/26 05:13:27;;;;;;;4.60;3.87;;;16.60;79.30;;;;;;2026503;29;20493;-66
2023/06/26 05:14:28;;;;;;;5.33;3.93;;;16.70;79.00;;;;;;2027475;29;21026;-66
2023/06/26 05:15:29;;;;;;;6.20;4.67;;;16.70;80.50;;;;;;2020092;29;20488;-66
2023/06/26 05:16:29;;;;;;;4.57;3.70;;;16.70;79.20;;;;;;2016298;29;20330;-66
2023/06/26 05:17:31;;;;;;;5.33;4.13;;;16.80;78.60;;;;;;2016407;29;20234;-66
2023/06/26 05:18:31;;;;;;;4.60;3.90;;;16.80;77.90;;;;;;2016146;29;20269;-66
2023/06/26 05:19:32;;;;;;;5.17;3.93;;;16.80;77.90;;;;;;2030512;29;20470;-66
2023/06/26 05:20:34;;;;;;;6.03;4.00;;;16.80;78.70;;;;;;2034451;29;20233;-66
2023/06/26 05:21:35;;;;;;;6.53;4.00;;;16.70;78.90;;;;;;2036584;29;20232;-66
2023/06/26 05:22:39;;;;;;;5.17;4.10;;;16.70;78.80;;;;;;2028060;29;20530;-66